createdAt,value
2024-01-14T00:00:54.472Z,-2.456
2024-01-14T00:05:47.417Z,-2.305
2024-01-14T00:10:50.900Z,-2.204
2024-01-14T00:15:51.468Z,-2.164
2024-01-14T00:20:53.595Z,-2.144
2024-01-14T00:25:52.660Z,-2.094
2024-01-14T00:30:47.329Z,-2.094
2024-01-14T00:35:49.266Z,-2.073
2024-01-14T00:40:50.082Z,-2.043
2024-01-14T00:45:49.989Z,-1.942
2024-01-14T00:50:50.206Z,-1.862
2024-01-14T00:55:54.717Z,-1.832
2024-01-14T01:00:49.839Z,-1.771
2024-01-14T01:05:51.550Z,-1.771
2024-01-14T01:10:50.783Z,-1.771
2024-01-14T01:15:52.827Z,-1.852
2024-01-14T01:20:52.288Z,-1.852
2024-01-14T01:25:53.701Z,-1.922
2024-01-14T01:30:49.915Z,-1.832
2024-01-14T01:35:50.511Z,-1.781
2024-01-14T01:40:48.430Z,-1.701
2024-01-14T01:45:52.422Z,-1.701
2024-01-14T01:50:50.626Z,-1.59
2024-01-14T01:55:51.698Z,-1.53
2024-01-14T02:00:52.277Z,-1.519
2024-01-14T02:05:49.566Z,-1.469
2024-01-14T02:10:50.767Z,-1.469
2024-01-14T02:15:49.104Z,-1.439
2024-01-14T02:20:50.503Z,-1.449
2024-01-14T02:40:49.384Z,-1.318
2024-01-14T02:45:46.079Z,-1.288
2024-01-14T02:50:45.228Z,-1.318
2024-01-14T02:55:45.322Z,-1.378
2024-01-14T03:00:45.744Z,-1.419
2024-01-14T03:05:46.250Z,-1.499
2024-01-14T03:10:47.487Z,-1.449
2024-01-14T03:15:47.286Z,-1.519
2024-01-14T03:20:46.055Z,-1.57
2024-01-14T03:25:45.759Z,-1.62
2024-01-14T03:30:45.515Z,-1.681
2024-01-14T03:35:46.710Z,-1.701
2024-01-14T03:40:46.413Z,-1.771
2024-01-14T03:45:46.212Z,-1.781
2024-01-14T03:50:47.384Z,-1.741
2024-01-14T03:55:48.693Z,-1.812
2024-01-14T04:00:47.932Z,-1.862
2024-01-14T04:05:49.078Z,-1.882
2024-01-14T04:10:46.103Z,-1.963
2024-01-14T04:15:46.706Z,-1.983
2024-01-14T04:20:47.473Z,-1.993
2024-01-14T04:25:48.520Z,-2.023
2024-01-14T04:30:46.917Z,-2.023
2024-01-14T04:35:48.702Z,-2.023
2024-01-14T04:40:46.289Z,-2.013
2024-01-14T04:45:48.262Z,-1.983
2024-01-14T04:50:51.558Z,-1.993
2024-01-14T04:55:49.939Z,-1.983
2024-01-14T05:00:46.591Z,-1.983
2024-01-14T05:05:47.519Z,-1.993
2024-01-14T05:10:47.738Z,-1.942
2024-01-14T05:15:50.020Z,-1.812
2024-01-14T05:20:48.258Z,-1.741
2024-01-14T05:25:50.170Z,-1.681
2024-01-14T05:30:47.732Z,-1.681
2024-01-14T05:35:48.078Z,-1.711
2024-01-14T05:40:47.879Z,-1.751
2024-01-14T05:45:48.630Z,-1.852
2024-01-14T05:50:50.379Z,-1.912
2024-01-14T05:55:48.316Z,-1.953
2024-01-14T06:00:49.224Z,-1.993
2024-01-14T06:05:47.732Z,-2.023
2024-01-14T06:10:46.591Z,-2.063
2024-01-14T06:15:48.140Z,-2.073
2024-01-14T06:20:49.764Z,-2.073
2024-01-14T06:25:53.142Z,-2.023
2024-01-14T06:30:51.506Z,-2.124
2024-01-14T06:35:49.354Z,-2.104
2024-01-14T06:40:58.961Z,-2.094
2024-01-14T06:45:52.795Z,-2.164
2024-01-14T06:50:50.287Z,-2.104
2024-01-14T06:55:53.717Z,-2.043
2024-01-14T07:00:54.089Z,-1.912
2024-01-14T07:05:50.598Z,-1.741
2024-01-14T07:10:53.377Z,-1.59
2024-01-14T07:15:52.645Z,-1.53
2024-01-14T07:20:52.581Z,-1.439
2024-01-14T07:25:51.890Z,-1.378
2024-01-14T07:30:49.688Z,-1.308
2024-01-14T07:35:51.319Z,-1.258
2024-01-14T07:40:51.775Z,-1.268
2024-01-14T07:45:57.553Z,-1.288
2024-01-14T07:50:52.256Z,-1.318
2024-01-14T07:55:55.468Z,-1.258
2024-01-14T08:01:04.155Z,-0.976
2024-01-14T08:05:54.739Z,-0.502
2024-01-14T08:10:57.640Z,-0.069
2024-01-14T08:16:03.368Z,0.575
2024-01-14T08:20:54.366Z,0.857
2024-01-14T08:25:55.888Z,0.857
2024-01-14T08:30:56.504Z,0.817
2024-01-14T08:35:51.312Z,0.736
2024-01-14T08:40:58.702Z,0.686
2024-01-14T08:45:57.077Z,0.797
2024-01-14T08:50:53.498Z,1.008
2024-01-14T08:55:57.609Z,1.22
2024-01-14T09:00:52.875Z,1.401
2024-01-14T09:05:50.337Z,1.592
2024-01-14T09:10:53.326Z,1.824
2024-01-14T09:15:53.476Z,1.905
2024-01-14T09:20:53.508Z,2.005
2024-01-14T09:25:53.958Z,2.086
2024-01-14T09:30:54.458Z,2.056
2024-01-14T09:35:55.181Z,2.237
2024-01-14T09:40:53.443Z,2.348
2024-01-14T09:45:54.330Z,2.529
2024-01-14T09:50:50.862Z,2.66
2024-01-14T09:55:52.388Z,2.811
2024-01-14T10:00:53.661Z,2.992
2024-01-14T10:05:53.822Z,3.143
2024-01-14T10:10:59.735Z,3.294
2024-01-14T10:16:01.170Z,3.294
2024-01-14T10:20:55.287Z,3.556
2024-01-14T10:25:52.325Z,3.637
2024-01-14T10:30:53.431Z,4.221
2024-01-14T10:35:54.294Z,5.057
2024-01-14T10:40:53.212Z,5.45
2024-01-14T10:45:54.650Z,6.034
2024-01-14T10:50:54.454Z,6.88
2024-01-14T10:55:54.145Z,7.423
2024-01-14T11:00:57.468Z,6.94
2024-01-14T11:05:54.615Z,6.769
2024-01-14T11:10:52.639Z,5.862
2024-01-14T11:15:52.411Z,6.396
2024-01-14T11:21:20.176Z,6.759
2024-01-14T11:25:54.116Z,6.97
2024-01-14T11:30:52.787Z,6.054
2024-01-14T11:35:52.795Z,5.862
2024-01-14T11:40:51.057Z,5.389
2024-01-14T11:45:51.478Z,5.057
2024-01-14T11:50:56.009Z,5.178
2024-01-14T11:55:51.046Z,5.339
2024-01-14T12:00:52.116Z,4.996
2024-01-14T12:05:52.653Z,4.664
2024-01-14T12:10:50.804Z,4.634
2024-01-14T12:16:01.887Z,4.382
2024-01-14T12:20:55.129Z,4.261
2024-01-14T12:25:52.520Z,4.14
2024-01-14T12:30:54.799Z,4.04
2024-01-14T12:35:51.415Z,4.07
2024-01-14T12:40:52.722Z,4.08
2024-01-14T12:45:56.456Z,4.05
2024-01-14T12:50:52.678Z,4.019
2024-01-14T12:55:55.166Z,4.07
2024-01-14T13:00:55.729Z,4.301
2024-01-14T13:05:55.967Z,4.583
2024-01-14T13:10:53.801Z,4.845
2024-01-14T13:15:51.552Z,4.926
2024-01-14T13:20:53.170Z,4.896
2024-01-14T13:25:55.808Z,5.107
2024-01-14T13:30:53.502Z,4.956
2024-01-14T13:35:53.991Z,4.956
2024-01-14T13:40:52.969Z,4.845
2024-01-14T13:45:56.785Z,4.896
2024-01-14T13:50:53.673Z,4.986
2024-01-14T13:55:53.561Z,5.047
2024-01-14T14:00:54.144Z,4.956
2024-01-14T14:05:56.131Z,4.906
2024-01-14T14:11:03.213Z,4.594
2024-01-14T14:15:55.756Z,4.412
2024-01-14T14:20:54.162Z,4.221
2024-01-14T14:25:48.990Z,4.07
2024-01-14T14:30:51.560Z,3.838
2024-01-14T14:35:52.653Z,3.717
2024-01-14T14:40:48.579Z,3.476
2024-01-14T14:45:51.612Z,3.315
2024-01-14T14:50:56.216Z,3.194
2024-01-14T14:55:53.635Z,3.012
2024-01-14T15:00:50.448Z,2.892
2024-01-14T15:05:48.851Z,2.65
2024-01-14T15:10:50.540Z,2.489
2024-01-14T15:15:52.918Z,2.318
2024-01-14T15:20:53.350Z,2.197
2024-01-14T15:25:53.333Z,2.116
2024-01-14T15:31:07.105Z,2.025
2024-01-14T15:35:47.497Z,1.935
2024-01-14T15:41:05.197Z,1.794
2024-01-14T15:45:47.774Z,1.643
2024-01-14T15:51:04.495Z,1.411
2024-01-14T15:55:51.170Z,1.3
2024-01-14T16:01:08.309Z,1.26
2024-01-14T16:05:52.131Z,1.28
2024-01-14T16:11:03.542Z,1.23
2024-01-14T16:15:50.548Z,1.19
2024-01-14T16:21:03.969Z,1.049
2024-01-14T16:25:48.386Z,0.958
2024-01-14T16:31:04.742Z,0.928
2024-01-14T16:35:57.668Z,0.938
2024-01-14T16:41:02.341Z,0.898
2024-01-14T16:45:51.871Z,0.817
2024-01-14T16:51:06.234Z,0.777
2024-01-14T16:55:52.777Z,0.757
2024-01-14T17:01:13.118Z,0.716
2024-01-14T17:05:52.245Z,0.636
2024-01-14T17:11:03.317Z,0.616
2024-01-14T17:16:08.582Z,0.595
2024-01-14T17:20:49.436Z,0.535
2024-01-14T17:26:03.545Z,0.475
2024-01-14T17:30:50.217Z,0.424
2024-01-14T17:36:04.816Z,0.313
2024-01-14T17:40:48.415Z,0.323
2024-01-14T17:46:06.853Z,0.293
2024-01-14T17:50:48.068Z,0.203
2024-01-14T17:55:46.541Z,0.112
2024-01-14T18:00:45.746Z,-0.089
2024-01-14T18:05:47.529Z,-0.23
2024-01-14T18:10:49.755Z,-0.261
2024-01-14T18:15:47.847Z,-0.17
2024-01-14T18:20:48.367Z,-0.16
2024-01-14T18:25:52.902Z,-0.089
2024-01-14T18:30:51.051Z,-0.049
2024-01-14T18:35:48.862Z,-0.069
2024-01-14T18:40:53.076Z,0.072
2024-01-14T18:45:47.230Z,0.132
2024-01-14T18:50:49.828Z,0.253
2024-01-14T18:55:50.882Z,0.354
2024-01-14T19:00:47.569Z,0.424
2024-01-14T19:05:51.330Z,0.394
2024-01-14T19:10:54.858Z,0.424
2024-01-14T19:15:52.693Z,0.344
2024-01-14T19:20:49.740Z,0.253
2024-01-14T19:25:54.924Z,0.112
2024-01-14T19:30:54.354Z,-0.019
2024-01-14T19:35:49.565Z,-0.17
2024-01-14T19:40:51.539Z,-0.291
2024-01-14T19:45:49.150Z,-0.402
2024-01-14T19:50:49.920Z,-0.553
2024-01-14T19:55:48.914Z,-0.653
2024-01-14T20:00:51.392Z,-0.714
2024-01-14T20:05:50.854Z,-0.794
2024-01-14T20:10:49.828Z,-0.845
2024-01-14T20:15:57.475Z,-0.895
2024-01-14T20:21:01.061Z,-0.956
2024-01-14T20:26:03.419Z,-0.986
2024-01-14T20:30:49.693Z,-0.976
2024-01-14T20:35:52.407Z,-1.026
2024-01-14T20:40:47.693Z,-1.016
2024-01-14T20:45:50.374Z,-1.046
2024-01-14T20:50:53.228Z,-1.107
2024-01-14T20:55:55.348Z,-1.137
2024-01-14T21:00:55.610Z,-1.137
2024-01-14T21:05:50.727Z,-1.187
2024-01-14T21:10:51.014Z,-1.237
2024-01-14T21:15:52.879Z,-1.237
2024-01-14T21:20:48.836Z,-1.288
2024-01-14T21:25:46.865Z,-1.288
2024-01-14T21:30:50.318Z,-1.368
2024-01-14T21:35:50.917Z,-1.409
2024-01-14T21:40:51.241Z,-1.439
2024-01-14T21:45:48.825Z,-1.499
2024-01-14T21:50:48.295Z,-1.499
2024-01-14T21:55:51.416Z,-1.53
2024-01-14T22:00:48.534Z,-1.62
2024-01-14T22:05:47.638Z,-1.671
2024-01-14T22:10:49.516Z,-1.751
2024-01-14T22:15:49.630Z,-1.751
2024-01-14T22:20:47.235Z,-1.741
2024-01-14T22:25:48.114Z,-1.751
2024-01-14T22:30:48.195Z,-1.731
2024-01-14T22:35:48.465Z,-1.812
2024-01-14T22:40:49.450Z,-1.832
2024-01-14T22:45:49.781Z,-1.862
2024-01-14T22:50:48.811Z,-1.892
2024-01-14T22:55:50.620Z,-1.882
2024-01-14T23:00:51.893Z,-1.912
2024-01-14T23:05:50.413Z,-1.983
2024-01-14T23:10:46.392Z,-1.953
2024-01-14T23:15:47.332Z,-2.013
2024-01-14T23:20:46.020Z,-2.094
2024-01-14T23:25:50.773Z,-2.043
2024-01-14T23:30:48.453Z,-2.134
2024-01-14T23:35:48.181Z,-2.104
2024-01-14T23:40:51.114Z,-2.104
2024-01-14T23:45:47.498Z,-2.094
2024-01-14T23:50:48.939Z,-2.094
2024-01-14T23:55:48.970Z,-2.043
